createdAt,value
2023-03-20T00:02:24.286Z,92.10
2023-03-20T00:05:35.883Z,92.05
2023-03-20T00:08:34.901Z,92.16
2023-03-20T00:11:50.103Z,91.94
2023-03-20T00:14:49.521Z,91.80
2023-03-20T00:17:54.594Z,92.13
2023-03-20T00:20:54.399Z,91.79
2023-03-20T00:23:42.758Z,91.68
2023-03-20T00:26:52.042Z,91.63
2023-03-20T00:29:50.768Z,92.01
2023-03-20T00:32:57.678Z,91.94
2023-03-20T00:36:05.930Z,92.15
2023-03-20T00:39:12.651Z,92.36
2023-03-20T00:42:19.541Z,92.71
2023-03-20T00:45:23.166Z,93.33
2023-03-20T00:48:31.128Z,93.69
2023-03-20T00:51:37.879Z,93.46
2023-03-20T00:54:44.630Z,93.46
2023-03-20T00:57:54.795Z,93.85
2023-03-20T01:00:59.570Z,93.97
2023-03-20T01:04:05.896Z,94.08
2023-03-20T01:07:12.259Z,94.17
2023-03-20T01:10:18.944Z,94.58
2023-03-20T01:13:43.051Z,95.11
2023-03-20T01:16:48.395Z,95.40
2023-03-20T01:19:54.378Z,95.39
2023-03-20T01:22:53.963Z,95.94
2023-03-20T01:26:00.297Z,95.78
2023-03-20T01:29:00.012Z,95.87
2023-03-20T01:32:05.636Z,96.08
2023-03-20T01:35:11.511Z,96.09
2023-03-20T01:38:16.411Z,95.99
2023-03-20T01:41:28.758Z,96.28
2023-03-20T01:44:39.027Z,96.26
2023-03-20T01:47:45.621Z,95.98
2023-03-20T01:50:52.797Z,96.30
2023-03-20T01:54:02.959Z,96.58
2023-03-20T01:57:14.797Z,96.84
2023-03-20T02:00:24.413Z,97.29
2023-03-20T02:03:30.193Z,97.75
2023-03-20T02:06:50.922Z,97.87
2023-03-20T02:10:10.846Z,97.98
2023-03-20T02:13:23.499Z,98.11
2023-03-20T02:16:29.912Z,98.17
2023-03-20T02:20:50.588Z,97.86
2023-03-20T02:24:36.918Z,97.78
2023-03-20T02:27:57.493Z,97.80
2023-03-20T02:31:51.001Z,97.99
2023-03-20T02:35:19.031Z,98.04
2023-03-20T02:38:53.605Z,98.69
2023-03-20T02:42:04.940Z,98.83
2023-03-20T02:45:42.517Z,99.05
2023-03-20T02:49:12.420Z,99.23
2023-03-20T02:52:39.509Z,99.51
2023-03-20T02:56:07.046Z,100.00
2023-03-20T02:59:28.281Z,100.00
2023-03-20T03:02:56.403Z,100.00
2023-03-20T03:06:15.313Z,100.00
2023-03-20T03:09:32.892Z,100.00
2023-03-20T03:12:48.287Z,100.00
2023-03-20T03:15:56.395Z,100.00
2023-03-20T03:19:04.391Z,100.00
2023-03-20T03:22:04.507Z,100.00
2023-03-20T03:25:03.871Z,100.00
2023-03-20T03:28:45.791Z,100.00
2023-03-20T03:31:52.626Z,100.00
2023-03-20T03:34:51.375Z,100.00
2023-03-20T03:38:39.879Z,100.00
2023-03-20T03:41:56.294Z,100.00
2023-03-20T03:45:16.013Z,100.00
2023-03-20T03:48:34.575Z,100.00
2023-03-20T03:51:43.172Z,100.00
2023-03-20T03:55:18.780Z,100.00
2023-03-20T03:58:39.962Z,100.00
2023-03-20T04:01:45.383Z,100.00
2023-03-20T04:04:53.993Z,100.00
2023-03-20T04:07:56.351Z,100.00
2023-03-20T04:11:01.684Z,100.00
2023-03-20T04:14:09.536Z,100.00
2023-03-20T04:17:15.948Z,100.00
2023-03-20T04:20:23.421Z,100.00
2023-03-20T04:23:29.998Z,100.00
2023-03-20T04:26:36.529Z,100.00
2023-03-20T04:29:42.961Z,100.00
2023-03-20T04:32:50.346Z,100.00
2023-03-20T04:36:00.582Z,100.00
2023-03-20T04:39:00.628Z,100.00
2023-03-20T04:41:59.067Z,99.96
2023-03-20T04:45:05.560Z,99.67
2023-03-20T04:48:10.808Z,99.83
2023-03-20T04:51:17.583Z,99.18
2023-03-20T04:54:24.719Z,99.24
2023-03-20T04:57:30.218Z,99.21
2023-03-20T05:00:35.687Z,98.89
2023-03-20T05:03:42.216Z,98.81
2023-03-20T05:06:47.782Z,98.44
2023-03-20T05:09:55.632Z,98.16
2023-03-20T05:13:03.177Z,98.08
2023-03-20T05:16:12.765Z,98.06
2023-03-20T05:19:20.784Z,98.01
2023-03-20T05:22:29.172Z,97.89
2023-03-20T05:25:42.201Z,97.92
2023-03-20T05:29:01.313Z,97.61
2023-03-20T05:32:25.818Z,97.58
2023-03-20T05:35:35.996Z,97.57
2023-03-20T05:38:44.401Z,97.71
2023-03-20T05:42:01.916Z,97.93
2023-03-20T05:44:48.968Z,97.87
2023-03-20T05:47:44.338Z,97.48
2023-03-20T05:50:49.948Z,97.03
2023-03-20T05:54:00.553Z,97.01
2023-03-20T05:57:07.800Z,97.12
2023-03-20T06:00:31.837Z,97.17
2023-03-20T06:03:55.436Z,97.08
2023-03-20T06:07:02.632Z,96.50
2023-03-20T06:09:57.817Z,96.45
2023-03-20T06:13:04.294Z,96.24
2023-03-20T06:16:10.759Z,96.26
2023-03-20T06:19:16.749Z,95.84
2023-03-20T06:22:23.202Z,95.47
2023-03-20T06:25:29.559Z,95.55
2023-03-20T06:28:35.161Z,95.43
2023-03-20T06:31:40.882Z,95.29
2023-03-20T06:34:48.190Z,95.46
2023-03-20T06:37:54.264Z,95.21
2023-03-20T06:40:59.724Z,95.37
2023-03-20T06:44:06.231Z,94.95
2023-03-20T06:47:14.580Z,94.67
2023-03-20T06:50:21.040Z,94.78
2023-03-20T06:53:27.192Z,94.29
2023-03-20T06:56:35.052Z,94.09
2023-03-20T06:59:39.817Z,94.14
2023-03-20T07:02:45.447Z,94.04
2023-03-20T07:05:53.270Z,94.65
2023-03-20T07:08:59.298Z,94.77
2023-03-20T07:12:05.178Z,93.99
2023-03-20T07:15:10.468Z,94.01
2023-03-20T07:18:17.237Z,94.50
2023-03-20T07:21:16.157Z,94.39
2023-03-20T07:24:23.268Z,94.49
2023-03-20T07:27:28.954Z,94.12
2023-03-20T07:30:35.145Z,93.96
2023-03-20T07:33:41.239Z,93.91
2023-03-20T07:36:49.015Z,93.82
2023-03-20T07:39:55.393Z,93.31
2023-03-20T07:43:07.943Z,92.35
2023-03-20T07:46:22.750Z,92.24
2023-03-20T07:49:31.061Z,92.10
2023-03-20T07:52:39.807Z,91.09
2023-03-20T07:55:44.763Z,91.12
2023-03-20T07:58:51.684Z,90.86
2023-03-20T08:01:57.065Z,90.32
2023-03-20T08:05:03.526Z,89.82
2023-03-20T08:08:02.958Z,89.28
2023-03-20T08:11:07.986Z,89.15
2023-03-20T08:14:13.468Z,88.37
2023-03-20T08:17:21.189Z,88.42
2023-03-20T08:20:27.066Z,88.43
2023-03-20T08:23:32.092Z,88.65
2023-03-20T08:26:37.988Z,88.66
2023-03-20T08:29:43.366Z,88.73
2023-03-20T08:32:49.426Z,88.28
2023-03-20T08:35:56.130Z,88.05
2023-03-20T08:39:03.694Z,87.86
2023-03-20T08:42:10.338Z,87.58
2023-03-20T08:45:17.799Z,86.69
2023-03-20T08:48:23.590Z,86.05
2023-03-20T08:51:29.742Z,85.47
2023-03-20T08:54:35.401Z,85.82
2023-03-20T08:57:42.979Z,85.38
2023-03-20T09:00:48.719Z,84.99
2023-03-20T09:03:54.261Z,84.98
2023-03-20T09:07:00.031Z,84.16
2023-03-20T09:10:05.505Z,83.50
2023-03-20T09:13:27.977Z,83.89
2023-03-20T09:16:15.004Z,83.75
2023-03-20T09:19:21.201Z,83.34
2023-03-20T09:22:30.217Z,83.17
2023-03-20T09:25:35.225Z,83.26
2023-03-20T09:28:42.399Z,82.48
2023-03-20T09:31:47.171Z,82.78
2023-03-20T09:34:52.968Z,82.75
2023-03-20T09:37:59.067Z,83.09
2023-03-20T09:41:16.719Z,82.83
2023-03-20T09:44:55.453Z,82.57
2023-03-20T09:48:27.644Z,82.31
2023-03-20T09:51:56.937Z,81.63
2023-03-20T09:55:05.300Z,81.77
2023-03-20T09:58:14.875Z,81.39
2023-03-20T10:01:21.569Z,81.07
2023-03-20T10:04:27.990Z,80.32
2023-03-20T10:07:33.941Z,80.70
2023-03-20T10:10:50.763Z,79.90
2023-03-20T10:14:04.088Z,80.47
2023-03-20T10:17:36.670Z,79.84
2023-03-20T10:20:50.882Z,80.51
2023-03-20T10:24:21.255Z,80.55
2023-03-20T10:27:49.821Z,80.29
2023-03-20T10:31:07.542Z,79.88
2023-03-20T10:34:28.156Z,80.00
2023-03-20T10:37:31.071Z,80.26
2023-03-20T10:40:35.562Z,79.93
2023-03-20T10:43:43.286Z,80.52
2023-03-20T10:46:57.077Z,80.77
2023-03-20T10:50:11.901Z,80.41
2023-03-20T10:53:17.693Z,80.46
2023-03-20T10:56:28.482Z,79.95
2023-03-20T10:59:41.785Z,79.49
2023-03-20T11:02:46.373Z,79.68
2023-03-20T11:06:08.490Z,79.81
2023-03-20T11:09:00.133Z,79.54
2023-03-20T11:12:02.445Z,79.36
2023-03-20T11:15:11.599Z,79.22
2023-03-20T11:18:21.534Z,79.09
2023-03-20T11:21:42.322Z,79.20
2023-03-20T11:24:51.913Z,78.58
2023-03-20T11:27:57.151Z,78.76
2023-03-20T11:31:05.225Z,78.61
2023-03-20T11:34:26.370Z,77.90
2023-03-20T11:37:46.411Z,77.44
2023-03-20T11:40:55.119Z,76.84
2023-03-20T11:44:01.093Z,76.51
2023-03-20T11:47:29.390Z,75.65
2023-03-20T11:50:47.550Z,76.07
2023-03-20T11:54:07.789Z,76.71
2023-03-20T11:57:13.991Z,75.71
2023-03-20T12:00:39.788Z,76.09
2023-03-20T12:03:54.153Z,75.94
2023-03-20T12:07:13.592Z,76.82
2023-03-20T12:10:22.137Z,76.33
2023-03-20T12:13:35.302Z,75.83
2023-03-20T12:16:44.393Z,75.32
2023-03-20T12:19:50.552Z,74.86
2023-03-20T12:23:30.336Z,75.23
2023-03-20T12:26:52.820Z,75.23
2023-03-20T12:30:06.656Z,75.82
2023-03-20T12:33:18.650Z,76.11
2023-03-20T12:36:32.630Z,76.25
2023-03-20T12:39:41.572Z,76.93
2023-03-20T12:43:10.518Z,76.94
2023-03-20T12:46:40.911Z,77.20
2023-03-20T12:50:06.116Z,77.91
2023-03-20T12:53:59.276Z,77.33
2023-03-20T12:57:20.091Z,78.10
2023-03-20T13:00:44.798Z,78.58
2023-03-20T13:04:07.907Z,78.96
2023-03-20T13:07:19.028Z,78.94
2023-03-20T13:10:22.819Z,79.51
2023-03-20T13:13:54.742Z,79.91
2023-03-20T13:17:21.944Z,80.67
2023-03-20T13:20:41.013Z,80.01
2023-03-20T13:24:06.346Z,80.23
2023-03-20T13:27:23.521Z,80.52
2023-03-20T13:30:50.002Z,80.49
2023-03-20T13:34:15.206Z,80.83
2023-03-20T13:37:28.980Z,80.11
2023-03-20T13:40:40.860Z,80.65
2023-03-20T13:44:07.861Z,80.05
2023-03-20T13:47:20.549Z,80.12
2023-03-20T13:51:01.566Z,79.73
2023-03-20T13:54:42.917Z,79.84
2023-03-20T13:58:19.327Z,80.33
2023-03-20T14:01:31.839Z,80.13
2023-03-20T14:04:31.412Z,80.85
2023-03-20T14:07:51.893Z,80.01
2023-03-20T14:10:58.393Z,80.12
2023-03-20T14:14:06.025Z,80.39
2023-03-20T14:17:21.844Z,80.95
2023-03-20T14:20:35.433Z,80.77
2023-03-20T14:23:54.202Z,81.47
2023-03-20T14:27:04.461Z,82.23
2023-03-20T14:30:10.132Z,83.07
2023-03-20T14:33:24.166Z,83.76
2023-03-20T14:36:36.301Z,83.57
2023-03-20T14:39:50.461Z,83.21
2023-03-20T14:43:13.699Z,83.50
2023-03-20T14:46:48.497Z,83.76
2023-03-20T14:50:08.764Z,83.78
2023-03-20T14:53:34.841Z,84.03
2023-03-20T14:56:45.899Z,83.66
2023-03-20T14:59:52.040Z,83.54
2023-03-20T15:02:58.819Z,83.83
2023-03-20T15:06:05.339Z,84.45
2023-03-20T15:09:20.338Z,84.36
2023-03-20T15:12:28.978Z,84.62
2023-03-20T15:15:40.451Z,84.85
2023-03-20T15:18:48.530Z,85.06
2023-03-20T15:21:55.609Z,85.38
2023-03-20T15:25:11.834Z,85.82
2023-03-20T15:28:21.133Z,86.31
2023-03-20T15:32:02.900Z,86.37
2023-03-20T15:34:56.787Z,86.58
2023-03-20T15:38:03.748Z,86.83
2023-03-20T15:41:09.321Z,86.56
2023-03-20T15:44:37.010Z,86.80
2023-03-20T15:47:43.394Z,87.19
2023-03-20T15:50:53.530Z,87.55
2023-03-20T15:54:01.695Z,87.85
2023-03-20T15:57:10.640Z,88.51
2023-03-20T16:00:15.657Z,88.91
2023-03-20T16:03:25.546Z,89.51
2023-03-20T16:06:34.440Z,89.93
2023-03-20T16:09:40.472Z,90.53
2023-03-20T16:12:46.882Z,90.92
2023-03-20T16:15:53.126Z,91.09
2023-03-20T16:18:59.874Z,91.62
2023-03-20T16:22:12.538Z,91.70
2023-03-20T16:25:18.254Z,91.82
2023-03-20T16:28:25.866Z,92.12
2023-03-20T16:31:49.929Z,92.53
2023-03-20T16:34:55.462Z,92.93
2023-03-20T16:38:14.987Z,93.93
2023-03-20T16:41:33.128Z,94.42
2023-03-20T16:44:43.658Z,95.34
2023-03-20T16:47:52.750Z,96.19
2023-03-20T16:51:01.385Z,95.94
2023-03-20T16:54:02.800Z,96.14
2023-03-20T16:57:10.433Z,95.90
2023-03-20T17:00:22.161Z,95.74
2023-03-20T17:03:34.272Z,95.99
2023-03-20T17:06:51.695Z,96.31
2023-03-20T17:10:27.139Z,96.15
2023-03-20T17:13:31.846Z,95.71
2023-03-20T17:16:37.108Z,96.17
2023-03-20T17:19:43.259Z,96.16
2023-03-20T17:22:49.767Z,97.30
2023-03-20T17:25:56.526Z,97.84
2023-03-20T17:29:03.213Z,98.11
2023-03-20T17:32:08.658Z,98.33
2023-03-20T17:35:13.959Z,98.61
2023-03-20T17:38:20.516Z,98.55
2023-03-20T17:41:31.400Z,98.04
2023-03-20T17:44:36.879Z,98.19
2023-03-20T17:47:42.742Z,98.70
2023-03-20T17:50:49.262Z,98.87
2023-03-20T17:53:50.403Z,99.13
2023-03-20T17:56:56.587Z,99.79
2023-03-20T18:00:02.053Z,99.79
2023-03-20T18:03:09.127Z,100.00
2023-03-20T18:06:14.729Z,100.00
2023-03-20T18:09:12.844Z,100.00
2023-03-20T18:12:00.471Z,100.00
2023-03-20T18:14:54.893Z,100.00
2023-03-20T18:17:55.664Z,100.00
2023-03-20T18:21:04.495Z,100.00
2023-03-20T18:24:09.153Z,100.00
2023-03-20T18:27:15.669Z,100.00
2023-03-20T18:30:29.562Z,100.00
2023-03-20T18:33:35.453Z,100.00
2023-03-20T18:36:41.310Z,100.00
2023-03-20T18:39:48.480Z,100.00
2023-03-20T18:42:54.139Z,100.00
2023-03-20T18:45:59.516Z,100.00
2023-03-20T18:49:06.123Z,100.00
2023-03-20T18:52:13.222Z,100.00
2023-03-20T18:55:19.617Z,100.00
2023-03-20T18:58:38.043Z,100.00
2023-03-20T19:01:44.690Z,100.00
2023-03-20T19:04:49.298Z,100.00
2023-03-20T19:07:57.231Z,100.00
2023-03-20T19:11:02.845Z,100.00
2023-03-20T19:14:09.278Z,100.00
2023-03-20T19:17:15.227Z,100.00
2023-03-20T19:20:23.221Z,100.00
2023-03-20T19:23:30.206Z,100.00
2023-03-20T19:26:35.998Z,100.00
2023-03-20T19:29:41.510Z,100.00
2023-03-20T19:32:49.800Z,100.00
2023-03-20T19:36:02.703Z,100.00
2023-03-20T19:39:02.759Z,100.00
2023-03-20T19:42:34.220Z,100.00
2023-03-20T19:45:15.928Z,100.00
2023-03-20T19:48:50.095Z,100.00
2023-03-20T19:51:41.842Z,100.00
2023-03-20T19:55:01.868Z,100.00
2023-03-20T19:57:58.056Z,100.00
2023-03-20T20:01:13.995Z,100.00
2023-03-20T20:04:11.674Z,100.00
2023-03-20T20:07:56.188Z,100.00
2023-03-20T20:10:27.976Z,100.00
2023-03-20T20:13:47.109Z,100.00
2023-03-20T20:16:44.571Z,100.00
2023-03-20T20:19:50.298Z,100.00
2023-03-20T20:22:55.990Z,100.00
2023-03-20T20:26:01.955Z,100.00
2023-03-20T20:29:09.369Z,100.00
2023-03-20T20:32:15.923Z,100.00
2023-03-20T20:35:44.008Z,100.00
2023-03-20T20:38:49.305Z,100.00
2023-03-20T20:41:38.993Z,100.00
2023-03-20T20:44:44.964Z,100.00
2023-03-20T20:47:51.510Z,100.00
2023-03-20T20:50:57.968Z,100.00
2023-03-20T20:54:04.482Z,100.00
2023-03-20T20:57:09.947Z,100.00
2023-03-20T21:00:15.771Z,100.00
2023-03-20T21:03:21.036Z,100.00
2023-03-20T21:06:44.303Z,100.00
2023-03-20T21:09:32.552Z,100.00
2023-03-20T21:12:52.030Z,100.00
2023-03-20T21:15:45.918Z,100.00
2023-03-20T21:18:52.137Z,100.00
2023-03-20T21:21:58.153Z,100.00
2023-03-20T21:25:14.350Z,100.00
2023-03-20T21:28:07.274Z,100.00
2023-03-20T21:34:10.665Z,100.00
2023-03-20T21:38:15.779Z,100.00
2023-03-20T21:40:25.076Z,100.00
2023-03-20T21:43:31.702Z,100.00
2023-03-20T21:50:31.166Z,100.00
2023-03-20T21:53:46.313Z,100.00
2023-03-20T21:59:47.336Z,100.00
2023-03-20T22:02:23.795Z,100.00
2023-03-20T22:09:45.235Z,100.00
2023-03-20T22:18:42.250Z,100.00
2023-03-20T22:24:59.403Z,100.00
2023-03-20T22:28:02.676Z,100.00
2023-03-20T22:37:43.785Z,100.00
2023-03-20T22:44:04.784Z,100.00
2023-03-20T22:46:39.998Z,100.00
2023-03-20T22:49:19.835Z,100.00
2023-03-20T22:52:37.872Z,100.00
2023-03-20T22:55:31.647Z,100.00
2023-03-20T22:58:37.701Z,100.00
2023-03-20T23:01:44.266Z,100.00
2023-03-20T23:04:49.772Z,100.00
2023-03-20T23:07:57.167Z,100.00
2023-03-20T23:11:05.395Z,100.00
2023-03-20T23:14:20.562Z,100.00
2023-03-20T23:17:18.778Z,100.00
2023-03-20T23:20:26.282Z,100.00
2023-03-20T23:23:32.276Z,100.00
2023-03-20T23:26:37.897Z,100.00
2023-03-20T23:29:44.934Z,100.00
2023-03-20T23:32:53.769Z,100.00
2023-03-20T23:36:14.053Z,100.00
2023-03-20T23:39:07.215Z,100.00
2023-03-20T23:42:29.228Z,100.00
2023-03-20T23:45:21.379Z,100.00
2023-03-20T23:48:27.308Z,100.00
2023-03-20T23:51:32.873Z,100.00
2023-03-20T23:54:39.343Z,100.00
2023-03-20T23:57:44.796Z,100.00
